MTN8116 TLPC-TFFF
Flight info
| Callsign | MTN8116 |
|---|---|
| Flight time | 0h 23m |
| Altitude | 5000 |
| Route | KISES A324 FOF |
| Aircraft | C208/L-SDF/C |
Departure
| Time | 2026-04-21 21:56 |
|---|---|
| Airport | George F. L. Charles Airport (TLPC) |
Arrival
| Time | 2026-04-21 22:20 |
|---|---|
| Airport | Martinique Aimé Césaire International Airport (TFFF) |
| Time | Latitude | Longitude | Altitude | Speed | Heading |
|---|---|---|---|---|---|
| 2026-04-21 21:44 | 14.02024 | -60.99558 | 27 ft | 0 kts | 147° |
| 2026-04-21 21:54 | 14.02023 | -60.99558 | 27 ft | 1 kts | 147° |
| 2026-04-21 21:54 | 14.01992 | -60.99583 | 27 ft | 14 kts | 236° |
| 2026-04-21 21:54 | 14.01898 | -60.99706 | 28 ft | 29 kts | 245° |
| 2026-04-21 21:54 | 14.01830 | -60.99943 | 30 ft | 38 kts | 255° |
| 2026-04-21 21:55 | 14.01773 | -61.00112 | 31 ft | 8 kts | 277° |
| 2026-04-21 21:55 | 14.01798 | -61.00071 | 30 ft | 0 kts | 79° |
| 2026-04-21 21:55 | 14.01827 | -60.99964 | 30 ft | 42 kts | 74° |
| 2026-04-21 21:55 | 14.01956 | -60.99476 | 25 ft | 94 kts | 74° |
| 2026-04-21 21:56 | 14.02137 | -60.98777 | 249 ft | 99 kts | 75° |
| 2026-04-21 21:56 | 14.02331 | -60.98097 | 537 ft | 100 kts | 72° |
| 2026-04-21 21:56 | 14.02561 | -60.97411 | 809 ft | 104 kts | 73° |
| 2026-04-21 21:56 | 14.02918 | -60.96786 | 1086 ft | 108 kts | 33° |
| 2026-04-21 21:57 | 14.03644 | -60.96805 | 1394 ft | 110 kts | 338° |
| 2026-04-21 21:57 | 14.04334 | -60.97100 | 1705 ft | 106 kts | 345° |
| 2026-04-21 21:57 | 14.05028 | -60.97312 | 2019 ft | 102 kts | 346° |
| 2026-04-21 21:57 | 14.05654 | -60.97527 | 2305 ft | 91 kts | 345° |
| 2026-04-21 21:58 | 14.06254 | -60.97729 | 2616 ft | 91 kts | 346° |
| 2026-04-21 21:58 | 14.06853 | -60.97934 | 2935 ft | 91 kts | 347° |
| 2026-04-21 21:58 | 14.07457 | -60.98146 | 3258 ft | 92 kts | 346° |
| 2026-04-21 21:58 | 14.08058 | -60.98355 | 3580 ft | 91 kts | 346° |
| 2026-04-21 21:59 | 14.08648 | -60.98558 | 3895 ft | 88 kts | 346° |
| 2026-04-21 21:59 | 14.09225 | -60.98754 | 4209 ft | 86 kts | 346° |
| 2026-04-21 21:59 | 14.09824 | -60.98948 | 4438 ft | 96 kts | 346° |
| 2026-04-21 21:59 | 14.10492 | -60.99149 | 4661 ft | 103 kts | 347° |
| 2026-04-21 22:00 | 14.11202 | -60.99359 | 4887 ft | 108 kts | 347° |
| 2026-04-21 22:00 | 14.11960 | -60.99579 | 5010 ft | 121 kts | 346° |
| 2026-04-21 22:00 | 14.12824 | -60.99821 | 5011 ft | 134 kts | 346° |
| 2026-04-21 22:00 | 14.13741 | -61.00072 | 5008 ft | 141 kts | 347° |
| 2026-04-21 22:01 | 14.14700 | -61.00334 | 5005 ft | 144 kts | 347° |
| 2026-04-21 22:01 | 14.15667 | -61.00600 | 5003 ft | 145 kts | 346° |
| 2026-04-21 22:01 | 14.16646 | -61.00872 | 5005 ft | 145 kts | 346° |
| 2026-04-21 22:01 | 14.17628 | -61.01141 | 5006 ft | 147 kts | 346° |
| 2026-04-21 22:02 | 14.18619 | -61.01414 | 5005 ft | 147 kts | 347° |
| 2026-04-21 22:02 | 14.19595 | -61.01683 | 5005 ft | 147 kts | 346° |
| 2026-04-21 22:02 | 14.20596 | -61.01959 | 5004 ft | 147 kts | 346° |
| 2026-04-21 22:02 | 14.21572 | -61.02229 | 5003 ft | 146 kts | 346° |
| 2026-04-21 22:03 | 14.22550 | -61.02502 | 5002 ft | 145 kts | 347° |
| 2026-04-21 22:03 | 14.23529 | -61.02769 | 5002 ft | 146 kts | 347° |
| 2026-04-21 22:03 | 14.24514 | -61.03043 | 5003 ft | 146 kts | 347° |
| 2026-04-21 22:03 | 14.25441 | -61.03451 | 4990 ft | 148 kts | 319° |
| 2026-04-21 22:04 | 14.25898 | -61.04395 | 4990 ft | 150 kts | 285° |
| 2026-04-21 22:04 | 14.26256 | -61.05395 | 4991 ft | 148 kts | 301° |
| 2026-04-21 22:04 | 14.26929 | -61.06189 | 4994 ft | 148 kts | 318° |
| 2026-04-21 22:04 | 14.27677 | -61.06909 | 4996 ft | 147 kts | 319° |
| 2026-04-21 22:05 | 14.28429 | -61.07631 | 4997 ft | 148 kts | 319° |
| 2026-04-21 22:05 | 14.29179 | -61.08351 | 4998 ft | 148 kts | 319° |
| 2026-04-21 22:05 | 14.29937 | -61.09077 | 4998 ft | 148 kts | 319° |
| 2026-04-21 22:05 | 14.30688 | -61.09796 | 4998 ft | 147 kts | 319° |
| 2026-04-21 22:06 | 14.31433 | -61.10511 | 4997 ft | 147 kts | 319° |
| 2026-04-21 22:06 | 14.32181 | -61.11230 | 4996 ft | 147 kts | 319° |
| 2026-04-21 22:06 | 14.32938 | -61.11953 | 4969 ft | 149 kts | 319° |
| 2026-04-21 22:06 | 14.33694 | -61.12678 | 4970 ft | 148 kts | 319° |
| 2026-04-21 22:07 | 14.34444 | -61.13398 | 4969 ft | 148 kts | 319° |
| 2026-04-21 22:07 | 14.35199 | -61.14122 | 4970 ft | 148 kts | 319° |
| 2026-04-21 22:07 | 14.35953 | -61.14845 | 4969 ft | 148 kts | 319° |
| 2026-04-21 22:07 | 14.36705 | -61.15567 | 4969 ft | 148 kts | 319° |
| 2026-04-21 22:08 | 14.37456 | -61.16287 | 4968 ft | 147 kts | 319° |
| 2026-04-21 22:08 | 14.38207 | -61.17009 | 4967 ft | 147 kts | 319° |
| 2026-04-21 22:08 | 14.38704 | -61.17486 | 4967 ft | 148 kts | 319° |
| 2026-04-21 22:08 | 14.39458 | -61.18209 | 4967 ft | 147 kts | 319° |
| 2026-04-21 22:09 | 14.40453 | -61.19163 | 4966 ft | 147 kts | 319° |
| 2026-04-21 22:09 | 14.41203 | -61.19884 | 4966 ft | 147 kts | 319° |
| 2026-04-21 22:09 | 14.41702 | -61.20362 | 4966 ft | 147 kts | 319° |
| 2026-04-21 22:09 | 14.42455 | -61.21085 | 4966 ft | 148 kts | 319° |
| 2026-04-21 22:10 | 14.43208 | -61.21809 | 4966 ft | 148 kts | 319° |
| 2026-04-21 22:10 | 14.43960 | -61.22529 | 4965 ft | 148 kts | 319° |
| 2026-04-21 22:10 | 14.44730 | -61.23226 | 4962 ft | 146 kts | 329° |
| 2026-04-21 22:10 | 14.45688 | -61.23508 | 4959 ft | 144 kts | 0° |
| 2026-04-21 22:11 | 14.46663 | -61.23308 | 4962 ft | 143 kts | 19° |
| 2026-04-21 22:11 | 14.47617 | -61.23009 | 4964 ft | 143 kts | 17° |
| 2026-04-21 22:11 | 14.48572 | -61.22722 | 4965 ft | 143 kts | 18° |
| 2026-04-21 22:11 | 14.49535 | -61.22430 | 4839 ft | 144 kts | 17° |
| 2026-04-21 22:12 | 14.50462 | -61.22156 | 4625 ft | 135 kts | 17° |
| 2026-04-21 22:12 | 14.51355 | -61.21890 | 4415 ft | 132 kts | 18° |
| 2026-04-21 22:12 | 14.52229 | -61.21626 | 4206 ft | 130 kts | 18° |
| 2026-04-21 22:12 | 14.53091 | -61.21365 | 4001 ft | 129 kts | 18° |
| 2026-04-21 22:13 | 14.53947 | -61.21104 | 3815 ft | 128 kts | 18° |
| 2026-04-21 22:13 | 14.54793 | -61.20843 | 3638 ft | 126 kts | 20° |
| 2026-04-21 22:13 | 14.55500 | -61.20351 | 3457 ft | 124 kts | 54° |
| 2026-04-21 22:13 | 14.55803 | -61.19532 | 3280 ft | 123 kts | 81° |
| 2026-04-21 22:14 | 14.55936 | -61.18671 | 3110 ft | 123 kts | 79° |
| 2026-04-21 22:14 | 14.56090 | -61.17808 | 2938 ft | 123 kts | 78° |
| 2026-04-21 22:14 | 14.56259 | -61.16949 | 2776 ft | 121 kts | 78° |
| 2026-04-21 22:14 | 14.56414 | -61.16097 | 2625 ft | 120 kts | 78° |
| 2026-04-21 22:15 | 14.56565 | -61.15251 | 2473 ft | 120 kts | 78° |
| 2026-04-21 22:15 | 14.56715 | -61.14405 | 2321 ft | 120 kts | 78° |
| 2026-04-21 22:15 | 14.56856 | -61.13556 | 2170 ft | 120 kts | 79° |
| 2026-04-21 22:15 | 14.57004 | -61.12710 | 2022 ft | 120 kts | 78° |
| 2026-04-21 22:16 | 14.57141 | -61.11880 | 1947 ft | 116 kts | 78° |
| 2026-04-21 22:16 | 14.57285 | -61.11051 | 1798 ft | 119 kts | 79° |
| 2026-04-21 22:16 | 14.57426 | -61.10210 | 1641 ft | 119 kts | 78° |
| 2026-04-21 22:16 | 14.57568 | -61.09362 | 1482 ft | 120 kts | 79° |
| 2026-04-21 22:17 | 14.57764 | -61.08524 | 1317 ft | 119 kts | 71° |
| 2026-04-21 22:17 | 14.57910 | -61.07695 | 1168 ft | 115 kts | 75° |
| 2026-04-21 22:17 | 14.58044 | -61.06901 | 1015 ft | 113 kts | 76° |
| 2026-04-21 22:17 | 14.58179 | -61.06098 | 862 ft | 112 kts | 76° |
| 2026-04-21 22:18 | 14.58307 | -61.05330 | 721 ft | 108 kts | 75° |
| 2026-04-21 22:18 | 14.58434 | -61.04577 | 577 ft | 105 kts | 75° |
| 2026-04-21 22:18 | 14.58559 | -61.03837 | 437 ft | 105 kts | 75° |
| 2026-04-21 22:18 | 14.58686 | -61.03118 | 316 ft | 96 kts | 73° |
| 2026-04-21 22:19 | 14.58824 | -61.02470 | 205 ft | 90 kts | 79° |
| 2026-04-21 22:19 | 14.58875 | -61.01801 | 73 ft | 97 kts | 78° |
| 2026-04-21 22:19 | 14.58976 | -61.01144 | 28 ft | 84 kts | 77° |
| 2026-04-21 22:19 | 14.59052 | -61.00648 | 17 ft | 52 kts | 80° |
| 2026-04-21 22:20 | 14.59104 | -61.00328 | 15 ft | 37 kts | 81° |
| 2026-04-21 22:20 | 14.59140 | -61.00100 | 15 ft | 32 kts | 81° |
| 2026-04-21 22:20 | 14.59248 | -61.00033 | 18 ft | 27 kts | 352° |
| 2026-04-21 22:20 | 14.59388 | -61.00117 | 17 ft | 25 kts | 293° |
| 2026-04-21 22:21 | 14.59481 | -61.00245 | 18 ft | 27 kts | 320° |
| 2026-04-21 22:21 | 14.59580 | -61.00349 | 16 ft | 11 kts | 245° |
| 2026-04-21 22:21 | 14.59562 | -61.00391 | 16 ft | 3 kts | 242° |
| 2026-04-21 22:21 | 14.59557 | -61.00403 | 16 ft | 0 kts | 247° |